Current Weather

Tokyo Intl

Tokyo Intl, Japan (RJTT)

Report from: Tuesday, August 16, 2022 9:30 AM JST
Current time: Tuesday, August 16, 2022 9:57 AM JST

Nearby weather
Weather history
Weather forecast

Temperature31.0°C (87.8°F)
Heat index37.8°C (100.0°F)
Dew point25.0°C (77.0°F)
Winds 15 kts (7.7 m/s, 17.3 mph) South-Southwest (200°)
Visibility6.2 mi. (10 km)
Clouds Ceiling: Broken clouds 0 ft. (0 m)
Few clouds 2,500 ft. (762 m)
Altimeter29.62 in.Hg (1003 mB)
Relative humidity71 %
Density altitude2,598 ft. (792 m)
Remarks No significant changes expected in the next two hours
Flight conditions Low Instrument Meteorological Conditions
Raw dataRJTT 160030Z 20015KT 9999 FEW025 BKN/// 31/25 Q1003 NOSIG RMK 1CU025 A2964
An error has occurred. This application may no longer respond until reloaded. Reload 🗙